Time;durP1;ratioP1;P1;durP2;ratioP2;P2;SDS_P1;SDS_P2;PMS_P1;PMS_P2;Temp;Humidity;BMP_temperature;BMP_pressure;BME280_temperature;BME280_humidity;BME280_pressure;Samples;Min_cycle;Max_cycle;Signal;HPM_P1;HPM_P2
2022/09/24 00:00:27;;;;;;;8.40;7.50;;;;;;;;;;5086982;28;20582;-76
2022/09/24 00:02:53;;;;;;;8.70;7.73;;;;;;;;;;5083778;28;20206;-76
2022/09/24 00:05:19;;;;;;;8.40;7.53;;;;;;;;;;5075941;28;20188;-76
2022/09/24 00:07:45;;;;;;;9.63;7.90;;;;;;;;;;5071741;28;20173;-76
2022/09/24 00:10:11;;;;;;;9.93;8.93;;;;;;;;;;5085310;28;20211;-76
2022/09/24 00:12:37;;;;;;;11.27;9.37;;;;;;;;;;5085556;28;20232;-76
2022/09/24 00:15:04;;;;;;;10.90;9.20;;;;;;;;;;5081082;28;20184;-77
2022/09/24 00:17:30;;;;;;;11.63;8.97;;;;;;;;;;5073743;28;20177;-76
2022/09/24 00:19:57;;;;;;;9.97;8.37;;;;;;;;;;5081953;28;20235;-76
2022/09/24 00:22:23;;;;;;;8.20;7.40;;;;;;;;;;5085948;28;20181;-76
2022/09/24 00:27:34;;;;;;;8.87;7.97;;;;;;;;;;5079691;28;20268;-76
2022/09/24 00:30:00;;;;;;;10.70;8.00;;;;;;;;;;5064934;28;20205;-76
2022/09/24 00:32:26;;;;;;;9.13;7.67;;;;;;;;;;5077260;28;20573;-76
2022/09/24 00:34:53;;;;;;;7.97;7.07;;;;;;;;;;5090233;28;20187;-76
2022/09/24 00:37:19;;;;;;;9.50;7.70;;;;;;;;;;5089933;28;20177;-77
2022/09/24 00:39:46;;;;;;;9.47;7.77;;;;;;;;;;5089966;28;20196;-76
2022/09/24 00:42:12;;;;;;;9.80;8.10;;;;;;;;;;5082770;28;20809;-76
2022/09/24 00:44:45;;;;;;;7.63;6.93;;;;;;;;;;5087670;28;20187;-76
2022/09/24 00:47:17;;;;;;;8.97;7.53;;;;;;;;;;5090144;28;20180;-76
2022/09/24 00:49:44;;;;;;;10.47;7.70;;;;;;;;;;5079951;28;20205;-76
2022/09/24 00:52:10;;;;;;;10.33;7.70;;;;;;;;;;5089957;28;20192;-76
2022/09/24 00:54:36;;;;;;;9.37;7.70;;;;;;;;;;5078523;28;20177;-79
2022/09/24 00:57:03;;;;;;;8.07;7.28;;;;;;;;;;5085779;28;20412;-79
2022/09/24 00:59:29;;;;;;;8.13;7.30;;;;;;;;;;5071404;28;20618;-77
2022/09/24 01:01:58;;;;;;;8.80;7.60;;;;;;;;;;5067452;28;20262;-78
2022/09/24 01:04:25;;;;;;;7.50;6.80;;;;;;;;;;5068330;28;20188;-77
2022/09/24 01:06:52;;;;;;;8.50;6.67;;;;;;;;;;5076689;28;20280;-78
2022/09/24 01:09:19;;;;;;;7.77;7.00;;;;;;;;;;5060695;28;20307;-78
2022/09/24 01:11:49;;;;;;;7.67;6.97;;;;;;;;;;5081467;28;20536;-78
2022/09/24 01:14:34;;;;;;;8.13;7.33;;;;;;;;;;5076290;28;20177;-78
2022/09/24 01:17:19;;;;;;;7.40;6.53;;;;;;;;;;5075109;28;20256;-78
2022/09/24 01:20:00;;;;;;;7.63;6.83;;;;;;;;;;5082598;28;20212;-77
2022/09/24 01:22:27;;;;;;;8.93;7.43;;;;;;;;;;5064510;28;20199;-78
2022/09/24 01:25:19;;;;;;;7.43;6.73;;;;;;;;;;5079727;28;20193;-77
2022/09/24 01:27:51;;;;;;;10.77;8.37;;;;;;;;;;5080910;28;20275;-77
2022/09/24 01:30:17;;;;;;;8.63;7.82;;;;;;;;;;5077661;28;20460;-77
2022/09/24 01:32:50;;;;;;;8.03;7.07;;;;;;;;;;5061322;28;20201;-77
2022/09/24 01:35:23;;;;;;;8.20;7.00;;;;;;;;;;5078941;28;20181;-77
2022/09/24 01:37:58;;;;;;;9.57;7.37;;;;;;;;;;5072213;28;20218;-77
2022/09/24 01:40:26;;;;;;;8.43;7.57;;;;;;;;;;5081323;28;20232;-77
2022/09/24 01:42:53;;;;;;;10.67;6.90;;;;;;;;;;5089094;28;20275;-77
2022/09/24 01:45:19;;;;;;;11.93;9.20;;;;;;;;;;5071360;28;20177;-77
2022/09/24 01:47:46;;;;;;;9.73;8.73;;;;;;;;;;5087318;28;20694;-77
2022/09/24 01:50:15;;;;;;;10.23;8.10;;;;;;;;;;5087141;28;20269;-77
2022/09/24 01:52:45;;;;;;;10.03;8.63;;;;;;;;;;5074847;28;20211;-77
2022/09/24 01:55:13;;;;;;;10.77;9.00;;;;;;;;;;5069093;28;20181;-77
2022/09/24 01:57:43;;;;;;;11.67;9.20;;;;;;;;;;5076215;28;20188;-76
2022/09/24 02:00:13;;;;;;;8.90;8.00;;;;;;;;;;5084996;28;20204;-78
2022/09/24 02:02:45;;;;;;;11.17;8.17;;;;;;;;;;5083451;28;20260;-78
2022/09/24 02:05:15;;;;;;;11.00;9.20;;;;;;;;;;5085043;28;20636;-78
2022/09/24 02:07:44;;;;;;;11.43;9.10;;;;;;;;;;5089091;28;20245;-79
2022/09/24 02:10:15;;;;;;;9.37;7.97;;;;;;;;;;5070964;28;20767;-78
2022/09/24 02:12:42;;;;;;;9.27;7.73;;;;;;;;;;5077194;28;20237;-78
2022/09/24 02:15:11;;;;;;;9.17;8.27;;;;;;;;;;5069074;28;20177;-78
2022/09/24 02:17:39;;;;;;;7.73;6.93;;;;;;;;;;5077936;28;20613;-78
2022/09/24 02:20:09;;;;;;;7.47;6.60;;;;;;;;;;5088861;28;20299;-78
2022/09/24 02:22:36;;;;;;;8.00;6.60;;;;;;;;;;5080740;28;20188;-78
2022/09/24 02:25:03;;;;;;;7.03;6.33;;;;;;;;;;5078792;28;20607;-79
2022/09/24 02:27:29;;;;;;;6.57;5.97;;;;;;;;;;5088437;28;20601;-79
2022/09/24 02:29:56;;;;;;;7.20;6.30;;;;;;;;;;5088760;28;20924;-79
2022/09/24 02:32:24;;;;;;;8.57;6.50;;;;;;;;;;5088307;28;20196;-78
2022/09/24 02:34:53;;;;;;;7.17;6.43;;;;;;;;;;5088874;28;20711;-78
2022/09/24 02:37:22;;;;;;;7.30;6.60;;;;;;;;;;5088321;28;20195;-78
2022/09/24 02:39:49;;;;;;;7.47;6.77;;;;;;;;;;5052160;28;20626;-78
2022/09/24 02:42:16;;;;;;;7.70;6.83;;;;;;;;;;5077764;28;20270;-78
2022/09/24 02:44:42;;;;;;;8.53;7.43;;;;;;;;;;5063413;28;20184;-78
2022/09/24 02:47:08;;;;;;;8.63;7.77;;;;;;;;;;5088366;28;20169;-78
2022/09/24 02:49:34;;;;;;;8.30;7.50;;;;;;;;;;5088476;28;20200;-79
2022/09/24 02:52:01;;;;;;;8.10;7.30;;;;;;;;;;5088292;28;20901;-78
2022/09/24 02:54:27;;;;;;;9.13;7.83;;;;;;;;;;5068666;28;20616;-78
2022/09/24 02:56:53;;;;;;;8.20;7.20;;;;;;;;;;5063641;28;20595;-78
2022/09/24 02:59:20;;;;;;;9.80;7.37;;;;;;;;;;5085109;28;20200;-78
2022/09/24 03:01:46;;;;;;;8.40;7.47;;;;;;;;;;5087323;28;20188;-78
2022/09/24 03:04:12;;;;;;;8.33;7.40;;;;;;;;;;5088322;28;20199;-78
2022/09/24 03:06:39;;;;;;;8.80;7.90;;;;;;;;;;5087674;28;20237;-78
2022/09/24 03:09:05;;;;;;;8.13;7.33;;;;;;;;;;5072140;28;20236;-78
2022/09/24 03:11:31;;;;;;;8.20;7.40;;;;;;;;;;5068190;28;20201;-78
2022/09/24 03:13:58;;;;;;;7.60;6.80;;;;;;;;;;5068161;28;20295;-78
2022/09/24 03:16:24;;;;;;;7.83;6.77;;;;;;;;;;5080073;28;20169;-78
2022/09/24 03:18:51;;;;;;;7.83;6.90;;;;;;;;;;5069554;28;20256;-78
2022/09/24 03:21:18;;;;;;;7.67;6.87;;;;;;;;;;5077394;28;20688;-79
2022/09/24 03:23:45;;;;;;;7.47;6.67;;;;;;;;;;5088093;28;20191;-78
2022/09/24 03:26:11;;;;;;;8.70;6.97;;;;;;;;;;5087823;28;20183;-78
2022/09/24 03:28:37;;;;;;;8.43;6.50;;;;;;;;;;5087938;28;20177;-78
2022/09/24 03:31:04;;;;;;;8.07;6.33;;;;;;;;;;5087749;28;20165;-78
2022/09/24 03:33:30;;;;;;;9.40;6.80;;;;;;;;;;5087197;28;20463;-78
2022/09/24 03:36:00;;;;;;;7.97;6.93;;;;;;;;;;5086794;28;20718;-78
2022/09/24 03:38:27;;;;;;;8.07;6.47;;;;;;;;;;5087469;28;20180;-78
2022/09/24 03:40:53;;;;;;;8.47;7.37;;;;;;;;;;5069525;28;20267;-78
2022/09/24 03:43:19;;;;;;;7.43;6.30;;;;;;;;;;5077377;28;20712;-78
2022/09/24 03:45:46;;;;;;;7.03;6.33;;;;;;;;;;5067945;28;20264;-78
2022/09/24 03:48:12;;;;;;;7.37;6.20;;;;;;;;;;5072057;28;20590;-78
2022/09/24 03:50:38;;;;;;;9.27;5.90;;;;;;;;;;5067675;28;20664;-79
2022/09/24 03:53:04;;;;;;;11.23;6.80;;;;;;;;;;5083057;28;20290;-78
2022/09/24 03:55:31;;;;;;;6.97;6.20;;;;;;;;;;5086390;28;20173;-78
2022/09/24 03:57:57;;;;;;;7.47;6.43;;;;;;;;;;5070438;28;20177;-79
2022/09/24 04:00:23;;;;;;;8.43;7.50;;;;;;;;;;5068850;28;20209;-78
2022/09/24 04:02:50;;;;;;;9.37;7.23;;;;;;;;;;5081059;28;20278;-77
2022/09/24 04:05:16;;;;;;;10.40;8.93;;;;;;;;;;5054165;28;20223;-79
2022/09/24 04:07:43;;;;;;;10.93;8.97;;;;;;;;;;5090741;28;20260;-78
2022/09/24 04:10:09;;;;;;;8.50;7.70;;;;;;;;;;5090943;28;20224;-78
2022/09/24 04:12:35;;;;;;;11.07;7.17;;;;;;;;;;5085534;28;20212;-78
2022/09/24 04:15:02;;;;;;;8.63;7.33;;;;;;;;;;5069314;28;20177;-78
2022/09/24 04:17:32;;;;;;;9.10;8.17;;;;;;;;;;5079703;28;20554;-78
2022/09/24 04:19:58;;;;;;;8.40;7.60;;;;;;;;;;5071542;28;20222;-78
2022/09/24 04:22:25;;;;;;;8.30;7.50;;;;;;;;;;5073136;28;20189;-78
2022/09/24 04:24:51;;;;;;;7.97;7.17;;;;;;;;;;5084118;28;20209;-78
2022/09/24 04:27:17;;;;;;;8.40;7.23;;;;;;;;;;5088915;28;20199;-78
2022/09/24 04:29:44;;;;;;;9.13;7.47;;;;;;;;;;5064066;28;20216;-78
2022/09/24 04:32:10;;;;;;;7.30;6.60;;;;;;;;;;5087712;28;20603;-79
2022/09/24 04:34:36;;;;;;;8.50;7.50;;;;;;;;;;5073082;28;20200;-78
2022/09/24 04:37:02;;;;;;;10.03;7.00;;;;;;;;;;5090575;28;20853;-78
2022/09/24 04:39:28;;;;;;;7.40;6.67;;;;;;;;;;5089735;28;20254;-78
2022/09/24 04:41:54;;;;;;;8.27;6.87;;;;;;;;;;5090469;28;20663;-78
2022/09/24 04:44:21;;;;;;;7.97;7.17;;;;;;;;;;5080297;28;20557;-78
2022/09/24 04:46:47;;;;;;;8.97;7.87;;;;;;;;;;5082152;28;20297;-77
2022/09/24 04:49:13;;;;;;;9.53;7.30;;;;;;;;;;5063013;28;20200;-78
2022/09/24 04:51:39;;;;;;;8.83;7.73;;;;;;;;;;5090348;28;20197;-78
2022/09/24 04:54:06;;;;;;;10.23;7.53;;;;;;;;;;5082662;28;20602;-76
2022/09/24 04:56:32;;;;;;;8.67;7.77;;;;;;;;;;5060817;28;20644;-76
2022/09/24 04:58:58;;;;;;;8.57;7.30;;;;;;;;;;5077219;28;20200;-77
2022/09/24 05:01:24;;;;;;;13.30;7.50;;;;;;;;;;5054150;28;20192;-76
2022/09/24 05:03:51;;;;;;;9.73;7.53;;;;;;;;;;5062300;28;20553;-76
2022/09/24 05:06:17;;;;;;;10.33;8.33;;;;;;;;;;5078268;28;20200;-77
2022/09/24 05:08:43;;;;;;;10.63;8.03;;;;;;;;;;5070351;28;20174;-76
2022/09/24 05:11:09;;;;;;;7.77;6.90;;;;;;;;;;5070008;28;20165;-77
2022/09/24 05:13:35;;;;;;;8.50;6.93;;;;;;;;;;5084149;28;20200;-76
2022/09/24 05:16:02;;;;;;;8.93;7.13;;;;;;;;;;5076545;28;20184;-76
2022/09/24 05:18:28;;;;;;;8.30;7.33;;;;;;;;;;5068684;28;20487;-76
2022/09/24 05:20:55;;;;;;;9.60;8.07;;;;;;;;;;5082684;28;20789;-76
2022/09/24 05:23:21;;;;;;;8.37;7.23;;;;;;;;;;5065868;28;20234;-77
2022/09/24 05:28:32;;;;;;;9.90;7.47;;;;;;;;;;5089362;28;20181;-76
2022/09/24 05:30:59;;;;;;;8.50;7.60;;;;;;;;;;5089961;28;20173;-76
2022/09/24 05:33:25;;;;;;;9.00;8.10;;;;;;;;;;5072150;28;20180;-76
2022/09/24 05:35:56;;;;;;;8.37;7.47;;;;;;;;;;5088476;28;20672;-76
2022/09/24 05:38:23;;;;;;;10.57;8.07;;;;;;;;;;5089824;28;20578;-76
2022/09/24 05:40:50;;;;;;;10.20;7.57;;;;;;;;;;5071831;28;20160;-77
2022/09/24 05:43:20;;;;;;;8.80;7.90;;;;;;;;;;5089146;28;20714;-77
2022/09/24 05:45:47;;;;;;;9.27;7.70;;;;;;;;;;5089248;28;20215;-77
2022/09/24 05:48:14;;;;;;;8.80;7.77;;;;;;;;;;5080189;28;20176;-76
2022/09/24 05:50:40;;;;;;;9.20;7.70;;;;;;;;;;5087498;28;20203;-77
2022/09/24 05:53:07;;;;;;;10.27;7.33;;;;;;;;;;5089165;28;20261;-77
2022/09/24 05:55:33;;;;;;;9.80;8.23;;;;;;;;;;5089352;28;20208;-77
2022/09/24 05:58:03;;;;;;;7.77;6.97;;;;;;;;;;5070913;28;20183;-77
2022/09/24 06:00:29;;;;;;;8.40;7.00;;;;;;;;;;5086272;28;20213;-77
2022/09/24 06:03:00;;;;;;;7.63;6.70;;;;;;;;;;5065341;28;20580;-77
2022/09/24 06:05:27;;;;;;;9.37;8.33;;;;;;;;;;5060648;28;20177;-77
2022/09/24 06:07:55;;;;;;;9.10;8.20;;;;;;;;;;5088936;28;20192;-77
2022/09/24 06:10:21;;;;;;;7.70;7.00;;;;;;;;;;5079272;28;20874;-77
2022/09/24 06:12:47;;;;;;;9.27;8.47;;;;;;;;;;5080915;28;20261;-77
2022/09/24 06:15:14;;;;;;;9.70;7.70;;;;;;;;;;5071648;28;20192;-78
2022/09/24 06:17:40;;;;;;;8.27;7.47;;;;;;;;;;5073185;28;20560;-78
2022/09/24 06:20:06;;;;;;;9.20;8.30;;;;;;;;;;5086551;28;20197;-78
2022/09/24 06:22:33;;;;;;;10.53;9.20;;;;;;;;;;5085159;28;20181;-79
2022/09/24 06:24:59;;;;;;;10.30;9.17;;;;;;;;;;5087966;28;20267;-78
2022/09/24 06:27:25;;;;;;;9.23;8.33;;;;;;;;;;5088194;28;20184;-78
2022/09/24 06:29:51;;;;;;;9.13;8.13;;;;;;;;;;5088502;28;20211;-78
2022/09/24 06:32:18;;;;;;;10.77;9.07;;;;;;;;;;5085404;28;20742;-78
2022/09/24 06:34:44;;;;;;;12.07;8.90;;;;;;;;;;5078881;28;20246;-78
2022/09/24 06:37:10;;;;;;;9.37;8.37;;;;;;;;;;5082790;28;20226;-78
2022/09/24 06:39:36;;;;;;;11.03;8.97;;;;;;;;;;5086014;28;20249;-78
2022/09/24 06:42:03;;;;;;;9.13;8.17;;;;;;;;;;5087043;28;20212;-78
2022/09/24 06:44:34;;;;;;;9.70;8.57;;;;;;;;;;5068707;28;20190;-78
2022/09/24 06:47:00;;;;;;;9.83;7.43;;;;;;;;;;5085306;28;20267;-78
2022/09/24 06:49:27;;;;;;;8.83;7.93;;;;;;;;;;5085172;28;20232;-76
2022/09/24 06:51:54;;;;;;;8.50;7.70;;;;;;;;;;5082589;28;20296;-77
2022/09/24 06:54:21;;;;;;;8.67;7.60;;;;;;;;;;5086927;28;20605;-77
2022/09/24 06:56:47;;;;;;;8.40;7.37;;;;;;;;;;5079148;28;20172;-78
2022/09/24 06:59:13;;;;;;;8.97;6.77;;;;;;;;;;5087751;28;20243;-77
2022/09/24 07:01:40;;;;;;;8.83;7.53;;;;;;;;;;5087583;28;20211;-78
2022/09/24 07:04:06;;;;;;;8.83;7.57;;;;;;;;;;5087712;28;20179;-77
2022/09/24 07:09:36;;;;;;;7.87;7.00;;;;;;;;;;4984964;28;20216;-77
2022/09/24 07:12:04;;;;;;;9.37;7.17;;;;;;;;;;5057486;28;20220;-77
2022/09/24 07:14:30;;;;;;;7.80;7.00;;;;;;;;;;5082048;28;20959;-78
2022/09/24 07:16:56;;;;;;;7.90;7.00;;;;;;;;;;5081288;28;20181;-77
2022/09/24 07:19:22;;;;;;;8.47;6.73;;;;;;;;;;5085723;28;20193;-79
2022/09/24 07:21:48;;;;;;;8.00;7.27;;;;;;;;;;5073610;28;20716;-77
2022/09/24 07:24:14;;;;;;;7.40;6.50;;;;;;;;;;5064385;28;20652;-76
2022/09/24 07:26:41;;;;;;;10.00;7.27;;;;;;;;;;5081845;28;20747;-76
2022/09/24 07:29:07;;;;;;;8.23;6.23;;;;;;;;;;5080774;28;20203;-76
2022/09/24 07:31:35;;;;;;;6.90;6.20;;;;;;;;;;5082340;28;20399;-77
2022/09/24 07:34:01;;;;;;;6.67;5.93;;;;;;;;;;5087477;28;20187;-76
2022/09/24 07:36:30;;;;;;;6.73;5.97;;;;;;;;;;5085619;28;20181;-76
2022/09/24 07:38:57;;;;;;;6.07;5.47;;;;;;;;;;5087379;28;20193;-76
2022/09/24 07:41:23;;;;;;;7.43;6.63;;;;;;;;;;5076260;28;20208;-76
2022/09/24 07:43:49;;;;;;;8.87;6.30;;;;;;;;;;5081805;28;20195;-76
2022/09/24 07:46:15;;;;;;;7.23;6.53;;;;;;;;;;5076693;28;20191;-77
2022/09/24 07:48:42;;;;;;;7.47;6.60;;;;;;;;;;5077246;28;20188;-76
2022/09/24 07:51:11;;;;;;;9.63;7.20;;;;;;;;;;5079185;28;20184;-76
2022/09/24 07:53:37;;;;;;;10.30;7.97;;;;;;;;;;5081296;28;20343;-77
2022/09/24 07:56:03;;;;;;;9.13;8.17;;;;;;;;;;5078355;28;20177;-76
2022/09/24 07:58:29;;;;;;;8.73;7.57;;;;;;;;;;5079384;28;20702;-77
2022/09/24 08:01:02;;;;;;;9.60;8.60;;;;;;;;;;5062827;28;20192;-77
2022/09/24 08:03:28;;;;;;;10.13;7.87;;;;;;;;;;5074091;28;20802;-77
2022/09/24 08:05:58;;;;;;;9.47;8.47;;;;;;;;;;5075118;28;20188;-77
2022/09/24 08:08:25;;;;;;;9.43;8.47;;;;;;;;;;5073660;28;20184;-77
2022/09/24 08:10:51;;;;;;;8.77;7.97;;;;;;;;;;5082385;28;20183;-77
2022/09/24 08:13:17;;;;;;;9.73;8.50;;;;;;;;;;5059389;28;20200;-76
2022/09/24 08:15:43;;;;;;;10.20;9.07;;;;;;;;;;5043794;28;20172;-76
2022/09/24 08:18:09;;;;;;;12.20;9.33;;;;;;;;;;5063879;28;20188;-75
2022/09/24 08:20:38;;;;;;;10.40;8.80;;;;;;;;;;5084233;28;20750;-76
2022/09/24 08:23:06;;;;;;;10.67;8.07;;;;;;;;;;5071418;28;20430;-76
2022/09/24 08:25:32;;;;;;;10.17;9.03;;;;;;;;;;5078167;28;20177;-77
2022/09/24 08:28:02;;;;;;;9.60;8.60;;;;;;;;;;5062414;28;20184;-75
2022/09/24 08:30:29;;;;;;;10.03;9.03;;;;;;;;;;5055712;28;20667;-75
2022/09/24 08:32:56;;;;;;;10.87;9.30;;;;;;;;;;5076765;28;20216;-75
2022/09/24 08:35:22;;;;;;;13.23;10.30;;;;;;;;;;5079214;28;20271;-75
2022/09/24 08:37:49;;;;;;;11.03;9.60;;;;;;;;;;5054435;28;20256;-75
2022/09/24 08:40:24;;;;;;;9.57;8.57;;;;;;;;;;5075340;28;20196;-75
2022/09/24 08:42:53;;;;;;;9.90;8.77;;;;;;;;;;5082455;28;20181;-76
2022/09/24 08:48:15;;;;;;;9.63;8.63;;;;;;;;;;5081036;28;20180;-75
2022/09/24 08:50:48;;;;;;;10.13;8.93;;;;;;;;;;5081832;28;20247;-76
2022/09/24 08:53:31;;;;;;;9.73;8.70;;;;;;;;;;5086842;28;20287;-76
2022/09/24 08:56:01;;;;;;;11.70;9.57;;;;;;;;;;5083827;28;20189;-76
2022/09/24 08:58:27;;;;;;;11.53;8.97;;;;;;;;;;5080136;28;20188;-76
2022/09/24 09:00:58;;;;;;;9.50;8.40;;;;;;;;;;5080667;28;20189;-75
2022/09/24 09:03:24;;;;;;;11.57;10.37;;;;;;;;;;5086818;28;20254;-76
2022/09/24 09:06:23;;;;;;;9.70;8.80;;;;;;;;;;5075739;28;20179;-81
2022/09/24 09:08:58;;;;;;;12.93;10.57;;;;;;;;;;5025811;28;20212;-81
2022/09/24 09:11:27;;;;;;;13.03;11.00;;;;;;;;;;5087252;28;20204;-76
2022/09/24 09:13:56;;;;;;;10.70;9.60;;;;;;;;;;5078029;28;20204;-75
2022/09/24 09:16:23;;;;;;;17.07;11.07;;;;;;;;;;5083130;28;20652;-79
2022/09/24 09:18:51;;;;;;;11.67;10.47;;;;;;;;;;5088549;28;20200;-75
2022/09/24 09:21:29;;;;;;;11.57;10.37;;;;;;;;;;5077745;28;20612;-80
2022/09/24 09:23:56;;;;;;;13.07;10.70;;;;;;;;;;5089151;28;20215;-78
2022/09/24 09:26:24;;;;;;;13.17;11.63;;;;;;;;;;5078114;28;20204;-89
2022/09/24 09:28:51;;;;;;;12.70;10.70;;;;;;;;;;5064793;28;20193;-78
2022/09/24 09:31:21;;;;;;;14.50;13.00;;;;;;;;;;5077664;28;20177;-77
2022/09/24 09:34:06;;;;;;;12.83;11.53;;;;;;;;;;5081048;28;20667;-78
2022/09/24 09:36:44;;;;;;;13.63;12.13;;;;;;;;;;5068572;28;20230;-77
2022/09/24 09:39:13;;;;;;;14.83;13.20;;;;;;;;;;5075546;28;20322;-77
2022/09/24 09:41:44;;;;;;;14.20;12.77;;;;;;;;;;5081694;28;20608;-77
2022/09/24 09:44:25;;;;;;;14.53;12.50;;;;;;;;;;5077328;28;20340;-76
2022/09/24 09:46:59;;;;;;;14.43;11.27;;;;;;;;;;5078017;28;20208;-76
2022/09/24 09:49:31;;;;;;;16.60;11.73;;;;;;;;;;5078226;28;20200;-77
2022/09/24 09:51:57;;;;;;;13.30;11.93;;;;;;;;;;5080303;28;20208;-77
2022/09/24 09:54:35;;;;;;;13.70;11.33;;;;;;;;;;5078795;28;20173;-77
2022/09/24 09:57:02;;;;;;;13.50;12.10;;;;;;;;;;5079339;28;20169;-77
2022/09/24 09:59:29;;;;;;;14.50;12.17;;;;;;;;;;5082933;28;20308;-81
2022/09/24 10:01:56;;;;;;;13.57;12.23;;;;;;;;;;5065044;28;20207;-78
2022/09/24 10:04:28;;;;;;;12.70;11.40;;;;;;;;;;5077718;28;20182;-81
2022/09/24 10:07:05;;;;;;;14.27;12.20;;;;;;;;;;5050082;28;20188;-80
2022/09/24 10:09:31;;;;;;;15.90;11.37;;;;;;;;;;5066389;28;20205;-80
2022/09/24 10:12:27;;;;;;;14.67;12.97;;;;;;;;;;5067908;28;20212;-81
2022/09/24 10:14:57;;;;;;;13.43;12.03;;;;;;;;;;5064045;28;20856;-79
2022/09/24 10:17:26;;;;;;;13.83;12.50;;;;;;;;;;5080195;28;20531;-77
2022/09/24 10:19:54;;;;;;;15.93;14.33;;;;;;;;;;5078624;28;20304;-77
2022/09/24 10:22:22;;;;;;;15.68;14.00;;;;;;;;;;5078439;28;20457;-77
2022/09/24 10:24:49;;;;;;;13.83;12.30;;;;;;;;;;5077676;28;20267;-77
2022/09/24 10:27:28;;;;;;;14.17;12.63;;;;;;;;;;5058803;28;20264;-78
2022/09/24 10:32:40;;;;;;;13.50;12.10;;;;;;;;;;5079458;28;20201;-77
2022/09/24 10:35:37;;;;;;;13.90;12.27;;;;;;;;;;5064415;28;20199;-78
2022/09/24 10:38:21;;;;;;;13.60;12.20;;;;;;;;;;5060943;28;20203;-78
2022/09/24 10:40:47;;;;;;;14.57;11.80;;;;;;;;;;5076984;28;20322;-77
2022/09/24 10:43:20;;;;;;;12.20;10.80;;;;;;;;;;5077411;28;20547;-77
2022/09/24 10:45:50;;;;;;;11.87;10.70;;;;;;;;;;5059224;28;20243;-76
2022/09/24 10:48:22;;;;;;;12.87;9.90;;;;;;;;;;5076860;28;20188;-77
2022/09/24 10:50:55;;;;;;;10.93;9.83;;;;;;;;;;5060462;28;20310;-77
2022/09/24 10:53:29;;;;;;;11.90;10.20;;;;;;;;;;5077574;28;20294;-80
2022/09/24 10:56:08;;;;;;;10.80;9.33;;;;;;;;;;5076221;28;20175;-79
2022/09/24 10:58:54;;;;;;;9.50;8.50;;;;;;;;;;5079101;28;20298;-78
2022/09/24 11:01:26;;;;;;;10.10;7.97;;;;;;;;;;5078405;28;20602;-77
2022/09/24 11:03:57;;;;;;;10.87;8.87;;;;;;;;;;5061294;28;20180;-77
2022/09/24 11:06:32;;;;;;;12.80;8.10;;;;;;;;;;5041881;28;20629;-78
2022/09/24 11:08:58;;;;;;;8.40;7.60;;;;;;;;;;5076497;28;20196;-79
2022/09/24 11:11:34;;;;;;;8.70;7.80;;;;;;;;;;5075367;28;20180;-77
2022/09/24 11:14:00;;;;;;;9.50;7.37;;;;;;;;;;5079798;28;20263;-78
2022/09/24 11:16:30;;;;;;;12.33;8.57;;;;;;;;;;5060891;28;20215;-78
2022/09/24 11:19:16;;;;;;;10.80;9.43;;;;;;;;;;5079582;28;20221;-78
2022/09/24 11:22:03;;;;;;;13.93;10.10;;;;;;;;;;5059228;28;20712;-78
2022/09/24 11:24:44;;;;;;;11.50;8.93;;;;;;;;;;5079899;28;20191;-78
2022/09/24 11:27:26;;;;;;;10.80;9.07;;;;;;;;;;5076760;28;20218;-79
2022/09/24 11:29:59;;;;;;;9.17;8.20;;;;;;;;;;5062063;28;20287;-77
2022/09/24 11:32:25;;;;;;;10.30;7.80;;;;;;;;;;5081004;28;20834;-79
2022/09/24 11:34:58;;;;;;;9.53;7.10;;;;;;;;;;5081696;28;20194;-79
2022/09/24 11:37:37;;;;;;;10.20;6.67;;;;;;;;;;5062721;28;20176;-79
2022/09/24 11:40:11;;;;;;;7.87;6.57;;;;;;;;;;5060431;28;20197;-79
2022/09/24 11:43:03;;;;;;;7.60;6.80;;;;;;;;;;5060261;28;20209;-79
2022/09/24 11:45:33;;;;;;;6.80;6.13;;;;;;;;;;5081948;28;20694;-79
2022/09/24 11:48:08;;;;;;;7.07;6.17;;;;;;;;;;5061679;28;20264;-79
2022/09/24 11:50:53;;;;;;;7.93;6.83;;;;;;;;;;5081009;28;20203;-84
2022/09/24 11:53:28;;;;;;;7.17;5.77;;;;;;;;;;5063870;28;20224;-82
2022/09/24 11:55:57;;;;;;;7.43;6.33;;;;;;;;;;5081077;28;20179;-82
2022/09/24 11:58:28;;;;;;;7.13;6.10;;;;;;;;;;5068829;28;20193;-79
2022/09/24 12:01:02;;;;;;;7.47;6.17;;;;;;;;;;5079586;28;20262;-80
2022/09/24 12:03:57;;;;;;;6.40;5.80;;;;;;;;;;5082447;28;20950;-84
2022/09/24 12:06:31;;;;;;;6.97;6.27;;;;;;;;;;5054808;28;20193;-83
2022/09/24 12:09:07;;;;;;;7.60;6.80;;;;;;;;;;5058872;28;20214;-83
2022/09/24 12:11:36;;;;;;;9.03;7.30;;;;;;;;;;5066160;28;20195;-83
2022/09/24 12:14:11;;;;;;;6.57;5.87;;;;;;;;;;5092883;28;20192;-83
2022/09/24 12:16:38;;;;;;;6.77;6.07;;;;;;;;;;5069173;28;20762;-76
2022/09/24 12:19:11;;;;;;;5.97;5.40;;;;;;;;;;5077708;28;20208;-78
2022/09/24 12:21:39;;;;;;;9.03;6.70;;;;;;;;;;5076578;28;20250;-77
2022/09/24 12:24:11;;;;;;;6.03;5.43;;;;;;;;;;5046020;28;20200;-78
2022/09/24 12:26:38;;;;;;;13.73;6.80;;;;;;;;;;5046093;28;20189;-78
2022/09/24 12:32:55;;;;;;;7.77;6.40;;;;;;;;;;5079670;28;20791;-78
2022/09/24 12:35:24;;;;;;;6.40;5.80;;;;;;;;;;5062285;28;20189;-78
2022/09/24 12:37:51;;;;;;;7.47;6.00;;;;;;;;;;5079114;28;20246;-78
2022/09/24 12:40:25;;;;;;;6.43;5.73;;;;;;;;;;5082556;28;20193;-77
2022/09/24 12:42:55;;;;;;;7.93;6.27;;;;;;;;;;5078852;28;20187;-78
2022/09/24 12:45:22;;;;;;;11.03;5.90;;;;;;;;;;5079527;28;20870;-78
2022/09/24 12:47:51;;;;;;;5.90;5.13;;;;;;;;;;5080653;28;20193;-80
2022/09/24 12:50:22;;;;;;;8.37;5.30;;;;;;;;;;5080113;28;20197;-78
2022/09/24 12:52:49;;;;;;;6.13;5.53;;;;;;;;;;5079849;28;20219;-78
2022/09/24 12:55:35;;;;;;;5.40;4.90;;;;;;;;;;5078579;28;20177;-78
2022/09/24 12:58:04;;;;;;;5.80;5.20;;;;;;;;;;5077751;28;20173;-77
2022/09/24 13:00:38;;;;;;;5.60;4.83;;;;;;;;;;5079662;28;20219;-77
2022/09/24 13:03:05;;;;;;;7.87;5.50;;;;;;;;;;5062785;28;20655;-77
2022/09/24 13:05:40;;;;;;;6.70;5.20;;;;;;;;;;5080097;28;20723;-77
2022/09/24 13:08:18;;;;;;;8.80;5.03;;;;;;;;;;5080725;28;20694;-77
2022/09/24 13:11:04;;;;;;;6.13;4.53;;;;;;;;;;5078753;28;20885;-78
2022/09/24 13:13:32;;;;;;;6.73;5.57;;;;;;;;;;5078771;28;20204;-83
2022/09/24 13:16:00;;;;;;;10.37;5.87;;;;;;;;;;5079257;28;20307;-81
2022/09/24 13:18:27;;;;;;;7.63;5.20;;;;;;;;;;5069688;28;20197;-78
2022/09/24 13:20:58;;;;;;;6.07;4.43;;;;;;;;;;5078720;28;20195;-77
2022/09/24 13:23:25;;;;;;;5.37;4.37;;;;;;;;;;5079015;28;20678;-78
2022/09/24 13:25:55;;;;;;;5.30;4.50;;;;;;;;;;5080407;28;20211;-79
2022/09/24 13:28:21;;;;;;;5.67;4.53;;;;;;;;;;5077576;28;20188;-78
2022/09/24 13:30:51;;;;;;;7.30;5.10;;;;;;;;;;5077172;28;20312;-78
2022/09/24 13:33:30;;;;;;;6.83;4.97;;;;;;;;;;5059082;28;20322;-77
2022/09/24 13:36:05;;;;;;;6.53;4.80;;;;;;;;;;5058603;28;20226;-78
2022/09/24 13:38:35;;;;;;;6.80;5.10;;;;;;;;;;5076684;28;20709;-79
2022/09/24 13:41:21;;;;;;;6.20;5.60;;;;;;;;;;5078748;28;20199;-75
2022/09/24 13:43:54;;;;;;;8.77;5.03;;;;;;;;;;5078429;28;20229;-75
2022/09/24 13:46:20;;;;;;;5.73;4.80;;;;;;;;;;5060981;28;20183;-75
2022/09/24 13:48:49;;;;;;;6.57;5.10;;;;;;;;;;5059782;28;20181;-75
2022/09/24 13:51:17;;;;;;;6.77;5.60;;;;;;;;;;5077687;28;20259;-75
2022/09/24 13:53:46;;;;;;;5.20;4.53;;;;;;;;;;5078020;28;20281;-75
2022/09/24 13:56:14;;;;;;;6.27;5.30;;;;;;;;;;5077178;28;20168;-75
2022/09/24 13:58:42;;;;;;;5.43;4.33;;;;;;;;;;5077537;28;20182;-75
2022/09/24 14:01:15;;;;;;;5.70;4.30;;;;;;;;;;5075780;28;20204;-75
2022/09/24 14:03:50;;;;;;;5.27;4.67;;;;;;;;;;5086168;28;20862;-77
2022/09/24 14:06:20;;;;;;;6.17;4.70;;;;;;;;;;5079354;28;20834;-79
2022/09/24 14:08:47;;;;;;;6.17;4.37;;;;;;;;;;5080184;28;20192;-85
2022/09/24 14:11:23;;;;;;;6.20;4.73;;;;;;;;;;5082977;28;20189;-78
2022/09/24 14:13:50;;;;;;;6.77;5.60;;;;;;;;;;5077229;28;20578;-79
2022/09/24 14:16:17;;;;;;;6.27;4.83;;;;;;;;;;5081805;28;20173;-79
2022/09/24 14:18:44;;;;;;;10.47;5.77;;;;;;;;;;5066404;28;20181;-79
2022/09/24 14:21:13;;;;;;;9.07;6.97;;;;;;;;;;5086400;28;20233;-79
2022/09/24 14:23:47;;;;;;;8.83;5.10;;;;;;;;;;5085033;28;20184;-76
2022/09/24 14:26:17;;;;;;;5.63;4.50;;;;;;;;;;5076354;28;20272;-75
2022/09/24 14:28:43;;;;;;;5.87;4.27;;;;;;;;;;5078581;28;20884;-74
2022/09/24 14:31:09;;;;;;;7.27;4.30;;;;;;;;;;5084442;28;20209;-72
2022/09/24 14:33:37;;;;;;;4.80;4.30;;;;;;;;;;5083602;28;20203;-75
2022/09/24 14:36:03;;;;;;;5.80;4.00;;;;;;;;;;5083249;28;20195;-75
2022/09/24 14:38:41;;;;;;;4.80;4.30;;;;;;;;;;5084514;28;20271;-75
2022/09/24 14:41:17;;;;;;;5.70;3.90;;;;;;;;;;5082981;28;20184;-75
2022/09/24 14:43:44;;;;;;;5.57;5.07;;;;;;;;;;5069837;28;20199;-76
2022/09/24 14:46:30;;;;;;;5.90;4.60;;;;;;;;;;5067630;28;20180;-76
2022/09/24 14:49:18;;;;;;;4.67;3.70;;;;;;;;;;5071907;28;20702;-75
2022/09/24 14:51:51;;;;;;;6.13;4.27;;;;;;;;;;5074902;28;20975;-76
2022/09/24 14:54:26;;;;;;;7.23;4.70;;;;;;;;;;5074642;28;20196;-76
2022/09/24 14:56:52;;;;;;;5.83;4.33;;;;;;;;;;5069466;28;20184;-76
2022/09/24 14:59:28;;;;;;;5.10;4.13;;;;;;;;;;5071678;28;20210;-76
2022/09/24 15:02:03;;;;;;;4.97;4.23;;;;;;;;;;5073329;28;20629;-75
2022/09/24 15:04:29;;;;;;;7.13;3.87;;;;;;;;;;5053967;28;20209;-75
2022/09/24 15:06:55;;;;;;;4.63;4.20;;;;;;;;;;5068426;28;20181;-76
2022/09/24 15:09:26;;;;;;;5.50;4.30;;;;;;;;;;5070975;28;20900;-76